createdAt,value
2018-03-15T00:00:51.056Z,11.12
2018-03-15T00:03:25.141Z,9.20
2018-03-15T00:05:53.108Z,10.77
2018-03-15T00:08:21.098Z,10.32
2018-03-15T00:10:49.102Z,8.90
2018-03-15T00:13:17.262Z,9.25
2018-03-15T00:15:45.216Z,9.45
2018-03-15T00:18:13.136Z,9.55
2018-03-15T00:20:41.023Z,9.52
2018-03-15T00:23:08.891Z,9.93
2018-03-15T00:25:36.774Z,9.63
2018-03-15T00:28:04.692Z,11.48
2018-03-15T00:30:32.565Z,11.00
2018-03-15T00:33:00.442Z,10.35
2018-03-15T00:35:28.334Z,10.00
2018-03-15T00:37:56.198Z,9.40
2018-03-15T00:40:24.068Z,9.68
2018-03-15T00:42:51.939Z,11.35
2018-03-15T00:45:19.810Z,10.35
2018-03-15T00:47:47.691Z,9.85
2018-03-15T00:50:15.574Z,10.30
2018-03-15T00:52:43.455Z,9.50
2018-03-15T00:55:11.355Z,9.80
2018-03-15T00:57:39.234Z,9.93
2018-03-15T01:00:07.095Z,10.27
2018-03-15T01:02:34.976Z,9.88
2018-03-15T01:05:02.881Z,9.93
2018-03-15T01:07:30.747Z,10.48
2018-03-15T01:09:58.619Z,8.98
2018-03-15T01:12:26.516Z,9.77
2018-03-15T01:14:54.390Z,10.95
2018-03-15T01:17:22.263Z,10.60
2018-03-15T01:19:50.141Z,8.43
2018-03-15T01:22:18.010Z,11.12
2018-03-15T01:24:45.901Z,12.68
2018-03-15T01:27:13.763Z,10.73
2018-03-15T01:29:41.618Z,10.05
2018-03-15T01:32:09.521Z,10.15
2018-03-15T01:34:37.413Z,10.95
2018-03-15T01:37:05.287Z,10.32
2018-03-15T01:39:33.167Z,11.88
2018-03-15T01:42:01.035Z,9.98
2018-03-15T01:44:28.994Z,9.55
2018-03-15T01:46:56.887Z,10.63
2018-03-15T01:49:24.828Z,11.50
2018-03-15T01:51:52.647Z,11.55
2018-03-15T01:54:20.551Z,9.77
2018-03-15T01:56:48.449Z,10.48
2018-03-15T01:59:16.335Z,11.10
2018-03-15T02:01:44.338Z,8.65
2018-03-15T02:04:12.227Z,10.55
2018-03-15T02:06:40.104Z,11.10
2018-03-15T02:09:08.358Z,10.48
2018-03-15T02:11:36.226Z,9.55
2018-03-15T02:14:04.107Z,9.25
2018-03-15T02:16:31.983Z,11.63
2018-03-15T02:18:59.942Z,10.07
2018-03-15T02:21:27.813Z,10.88
2018-03-15T02:23:55.687Z,9.93
2018-03-15T02:26:23.586Z,9.27
2018-03-15T02:28:53.519Z,9.15
2018-03-15T02:31:21.405Z,10.18
2018-03-15T02:33:49.276Z,10.68
2018-03-15T02:36:17.155Z,11.12
2018-03-15T02:38:45.034Z,11.27
2018-03-15T02:41:12.910Z,9.63
2018-03-15T02:43:41.815Z,9.75
2018-03-15T02:46:09.798Z,10.75
2018-03-15T02:48:37.685Z,9.80
2018-03-15T02:51:06.585Z,11.57
2018-03-15T02:53:34.463Z,9.60
2018-03-15T02:56:02.340Z,9.13
2018-03-15T02:58:30.213Z,9.25
2018-03-15T03:00:58.092Z,10.23
2018-03-15T03:03:25.978Z,10.52
2018-03-15T03:05:53.855Z,9.38
2018-03-15T03:08:21.752Z,9.27
2018-03-15T03:10:49.627Z,10.30
2018-03-15T03:13:17.489Z,9.20
2018-03-15T03:15:45.363Z,9.75
2018-03-15T03:18:13.242Z,11.15
2018-03-15T03:20:41.103Z,8.95
2018-03-15T03:23:08.983Z,10.00
2018-03-15T03:25:36.899Z,9.25
2018-03-15T03:28:04.767Z,11.07
2018-03-15T03:30:32.650Z,9.98
2018-03-15T03:33:00.532Z,11.35
2018-03-15T03:35:28.395Z,9.10
2018-03-15T03:37:56.264Z,10.45
2018-03-15T03:40:24.130Z,9.25
2018-03-15T03:42:52.011Z,12.25
2018-03-15T03:45:20.891Z,9.93
2018-03-15T03:47:48.771Z,10.48
2018-03-15T03:50:16.653Z,11.15
2018-03-15T03:52:44.538Z,11.55
2018-03-15T03:55:12.461Z,10.60
2018-03-15T03:57:40.347Z,10.80
2018-03-15T04:00:08.219Z,10.38
2018-03-15T04:02:36.095Z,9.90
2018-03-15T04:05:03.960Z,8.95
2018-03-15T04:07:31.835Z,10.57
2018-03-15T04:09:59.723Z,10.25
2018-03-15T04:12:27.582Z,9.65
2018-03-15T04:14:55.459Z,9.50
2018-03-15T04:17:23.334Z,10.00
2018-03-15T04:19:51.208Z,10.57
2018-03-15T04:22:19.078Z,10.23
2018-03-15T04:24:46.962Z,11.80
2018-03-15T04:27:14.818Z,9.35
2018-03-15T04:29:42.693Z,10.10
2018-03-15T04:32:10.555Z,8.75
2018-03-15T04:34:38.435Z,10.48
2018-03-15T04:37:06.343Z,10.43
2018-03-15T04:39:34.227Z,10.10
2018-03-15T04:42:02.096Z,10.20
2018-03-15T04:44:29.974Z,9.30
2018-03-15T04:46:57.842Z,10.75
2018-03-15T04:49:25.711Z,9.45
2018-03-15T04:51:53.579Z,9.50
2018-03-15T04:54:21.447Z,10.70
2018-03-15T04:56:49.326Z,9.43
2018-03-15T04:59:17.202Z,10.60
2018-03-15T05:01:45.095Z,10.55
2018-03-15T05:04:12.955Z,11.25
2018-03-15T05:06:40.834Z,9.85
2018-03-15T05:09:09.046Z,10.90
2018-03-15T05:11:37.934Z,8.68
2018-03-15T05:14:05.831Z,10.20
2018-03-15T05:16:33.711Z,9.10
2018-03-15T05:19:01.579Z,11.40
2018-03-15T05:21:29.455Z,10.30
2018-03-15T05:23:57.347Z,10.40
2018-03-15T05:26:25.203Z,9.45
2018-03-15T05:28:53.075Z,8.75
2018-03-15T05:31:20.982Z,10.73
2018-03-15T05:33:48.842Z,10.75
2018-03-15T05:36:16.731Z,10.85
2018-03-15T05:38:44.608Z,11.68
2018-03-15T05:41:12.501Z,9.20
2018-03-15T05:43:40.382Z,9.55
2018-03-15T05:46:08.284Z,11.05
2018-03-15T05:48:36.138Z,10.40
2018-03-15T05:51:04.013Z,10.65
2018-03-15T05:53:31.891Z,10.65
2018-03-15T05:55:59.760Z,9.57
2018-03-15T05:58:27.647Z,9.95
2018-03-15T06:00:55.555Z,10.18
2018-03-15T06:03:23.426Z,10.68
2018-03-15T06:05:51.332Z,10.13
2018-03-15T06:08:19.249Z,7.90
2018-03-15T06:10:47.139Z,10.15
2018-03-15T06:13:16.144Z,9.57
2018-03-15T06:15:44.074Z,9.20
2018-03-15T06:18:11.903Z,10.40
2018-03-15T06:20:39.783Z,9.38
2018-03-15T06:23:07.664Z,9.20
2018-03-15T06:25:35.527Z,10.30
2018-03-15T06:28:03.399Z,10.90
2018-03-15T06:30:31.300Z,10.30
2018-03-15T06:32:59.177Z,10.77
2018-03-15T06:35:27.059Z,9.40
2018-03-15T06:37:54.958Z,9.95
2018-03-15T06:40:22.811Z,9.80
2018-03-15T06:42:50.691Z,10.25
2018-03-15T06:45:18.565Z,9.15
2018-03-15T06:47:46.423Z,9.00
2018-03-15T06:50:14.301Z,9.00
2018-03-15T06:52:42.180Z,10.52
2018-03-15T06:55:10.060Z,10.40
2018-03-15T06:57:37.949Z,9.15
2018-03-15T07:00:05.835Z,8.82
2018-03-15T07:02:33.699Z,10.77
2018-03-15T07:05:01.577Z,10.43
2018-03-15T07:07:29.456Z,8.77
2018-03-15T07:09:57.336Z,9.45
2018-03-15T07:12:25.208Z,8.82
2018-03-15T07:14:53.090Z,10.00
2018-03-15T07:17:20.970Z,11.27
2018-03-15T07:19:48.859Z,9.52
2018-03-15T07:22:16.754Z,9.25
2018-03-15T07:24:44.615Z,9.70
2018-03-15T07:27:12.503Z,10.23
2018-03-15T07:29:40.383Z,10.18
2018-03-15T07:32:08.243Z,8.80
2018-03-15T07:34:36.159Z,10.07
2018-03-15T07:37:04.671Z,9.00
2018-03-15T07:39:32.694Z,11.20
2018-03-15T07:42:00.680Z,9.15
2018-03-15T07:44:28.672Z,9.57
2018-03-15T07:46:56.663Z,10.00
2018-03-15T07:49:24.655Z,10.55
2018-03-15T07:51:52.903Z,9.35
2018-03-15T07:54:20.916Z,9.20
2018-03-15T07:56:48.904Z,9.77
2018-03-15T07:59:16.864Z,10.20
2018-03-15T08:01:44.864Z,9.45
2018-03-15T08:04:12.852Z,9.32
2018-03-15T08:06:40.850Z,9.27
2018-03-15T08:09:08.872Z,9.48
2018-03-15T08:11:36.864Z,10.82
2018-03-15T08:14:04.857Z,10.20
2018-03-15T08:16:32.856Z,8.95
2018-03-15T08:19:00.843Z,8.70
2018-03-15T08:21:28.847Z,10.02
2018-03-15T08:23:56.838Z,9.40
2018-03-15T08:26:24.800Z,9.52
2018-03-15T08:28:52.823Z,10.02
2018-03-15T08:31:20.816Z,9.40
2018-03-15T08:33:48.817Z,9.85
2018-03-15T08:36:16.808Z,9.68
2018-03-15T08:38:44.820Z,9.77
2018-03-15T08:41:12.824Z,10.10
2018-03-15T08:43:40.839Z,10.07
2018-03-15T08:46:09.166Z,10.38
2018-03-15T08:48:37.284Z,11.02
2018-03-15T08:51:05.462Z,10.25
2018-03-15T08:53:33.421Z,9.55
2018-03-15T08:56:01.654Z,9.57
2018-03-15T08:58:29.706Z,8.80
2018-03-15T09:00:57.888Z,9.32
2018-03-15T09:03:26.007Z,10.15
2018-03-15T09:05:54.003Z,10.37
2018-03-15T09:08:21.977Z,9.60
2018-03-15T09:10:49.965Z,9.57
2018-03-15T09:13:17.978Z,9.50
2018-03-15T09:15:45.981Z,8.40
2018-03-15T09:18:13.997Z,10.37
2018-03-15T09:20:41.997Z,10.10
2018-03-15T09:23:10.003Z,10.27
2018-03-15T09:25:38.000Z,10.30
2018-03-15T09:28:05.984Z,9.17
2018-03-15T09:30:34.010Z,9.40
2018-03-15T09:33:03.131Z,9.20
2018-03-15T09:35:31.178Z,9.17
2018-03-15T09:37:59.240Z,11.00
2018-03-15T09:40:27.244Z,9.30
2018-03-15T09:42:55.280Z,10.10
2018-03-15T09:45:23.256Z,11.03
2018-03-15T09:47:51.271Z,9.23
2018-03-15T09:50:19.302Z,9.47
2018-03-15T09:52:47.360Z,9.60
2018-03-15T09:55:15.371Z,9.37
2018-03-15T09:57:43.345Z,9.40
2018-03-15T10:00:11.328Z,9.40
2018-03-15T10:02:39.359Z,8.43
2018-03-15T10:05:07.367Z,9.40
2018-03-15T10:07:35.337Z,9.40
2018-03-15T10:10:03.356Z,8.90
2018-03-15T10:12:31.360Z,9.73
2018-03-15T10:14:59.342Z,9.27
2018-03-15T10:17:27.374Z,9.20
2018-03-15T10:19:55.388Z,9.13
2018-03-15T10:22:23.347Z,8.40
2018-03-15T10:24:51.339Z,8.57
2018-03-15T10:27:19.383Z,8.70
2018-03-15T10:29:47.494Z,8.43
2018-03-15T10:32:16.568Z,7.77
2018-03-15T10:34:44.619Z,8.80
2018-03-15T10:37:12.535Z,8.30
2018-03-15T10:39:40.533Z,7.70
2018-03-15T10:42:08.552Z,8.30
2018-03-15T10:44:36.516Z,8.63
2018-03-15T10:47:04.528Z,8.20
2018-03-15T10:49:33.587Z,7.50
2018-03-15T10:52:01.591Z,7.93
2018-03-15T10:54:29.592Z,8.20
2018-03-15T10:56:57.565Z,7.70
2018-03-15T10:59:25.577Z,8.67
2018-03-15T11:01:59.927Z,7.13
2018-03-15T11:04:33.877Z,6.80
2018-03-15T11:07:03.820Z,8.03
2018-03-15T11:09:32.925Z,7.83
2018-03-15T11:12:00.874Z,6.73
2018-03-15T11:14:28.909Z,7.20
2018-03-15T11:16:56.907Z,7.50
2018-03-15T11:19:24.875Z,7.13
2018-03-15T11:21:52.895Z,7.10
2018-03-15T11:24:20.892Z,7.13
2018-03-15T11:26:48.900Z,6.87
2018-03-15T11:29:16.892Z,6.83
2018-03-15T11:31:44.892Z,6.90
2018-03-15T11:34:13.140Z,5.70
2018-03-15T11:36:41.119Z,5.93
2018-03-15T11:39:09.123Z,6.80
2018-03-15T11:41:37.124Z,6.07
2018-03-15T11:44:05.091Z,5.87
2018-03-15T11:46:33.140Z,7.20
2018-03-15T11:49:01.129Z,6.90
2018-03-15T11:51:29.128Z,6.37
2018-03-15T11:53:58.204Z,5.90
2018-03-15T11:56:26.199Z,5.10
2018-03-15T11:58:54.211Z,6.30
2018-03-15T12:01:22.232Z,5.97
2018-03-15T12:03:50.191Z,6.83
2018-03-15T12:06:18.227Z,6.20
2018-03-15T12:08:46.268Z,6.53
2018-03-15T12:11:14.235Z,6.00
2018-03-15T12:13:42.273Z,5.47
2018-03-15T12:16:10.284Z,5.67
2018-03-15T12:18:38.252Z,6.10
2018-03-15T12:21:06.228Z,5.63
2018-03-15T12:23:34.208Z,6.60
2018-03-15T12:26:02.176Z,5.57
2018-03-15T12:28:30.160Z,6.20
2018-03-15T12:30:58.130Z,6.17
2018-03-15T12:33:26.115Z,5.77
2018-03-15T12:35:54.080Z,4.90
2018-03-15T12:38:22.092Z,5.87
2018-03-15T12:40:50.068Z,5.93
2018-03-15T12:43:18.056Z,5.40
2018-03-15T12:45:46.047Z,5.30
2018-03-15T12:48:14.021Z,5.53
2018-03-15T12:50:42.013Z,5.87
2018-03-15T12:53:09.980Z,5.50
2018-03-15T12:55:37.924Z,4.90
2018-03-15T12:58:05.926Z,6.00
2018-03-15T13:00:33.940Z,5.63
2018-03-15T13:03:01.913Z,5.77
2018-03-15T13:05:29.910Z,5.63
2018-03-15T13:07:57.872Z,6.27
2018-03-15T13:10:25.832Z,6.20
2018-03-15T13:12:53.840Z,5.00
2018-03-15T13:15:22.903Z,6.10
2018-03-15T13:17:50.903Z,5.47
2018-03-15T13:20:18.959Z,5.20
2018-03-15T13:22:46.990Z,6.23
2018-03-15T13:25:14.971Z,4.80
2018-03-15T13:27:42.964Z,5.73
2018-03-15T13:30:10.962Z,5.90
2018-03-15T13:32:38.968Z,4.47
2018-03-15T13:35:06.950Z,4.13
2018-03-15T13:37:34.947Z,4.77
2018-03-15T13:40:02.944Z,5.10
2018-03-15T13:42:30.920Z,5.70
2018-03-15T13:44:59.005Z,5.30
2018-03-15T13:47:26.999Z,4.90
2018-03-15T13:49:54.986Z,5.47
2018-03-15T13:52:23.016Z,4.50
2018-03-15T13:54:51.040Z,4.63
2018-03-15T13:57:19.039Z,5.30
2018-03-15T13:59:47.008Z,4.87
2018-03-15T14:02:14.989Z,6.27
2018-03-15T14:04:42.996Z,4.50
2018-03-15T14:07:11.042Z,4.90
2018-03-15T14:09:39.024Z,5.10
2018-03-15T14:12:07.032Z,3.57
2018-03-15T14:14:35.037Z,4.43
2018-03-15T14:17:03.006Z,4.30
2018-03-15T14:19:31.032Z,4.70
2018-03-15T14:21:59.131Z,4.57
2018-03-15T14:24:27.104Z,4.00
2018-03-15T14:26:55.108Z,5.50
2018-03-15T14:29:23.124Z,5.60
2018-03-15T14:31:51.092Z,4.50
2018-03-15T14:34:19.056Z,5.87
2018-03-15T14:36:47.037Z,5.20
2018-03-15T14:39:14.982Z,5.97
2018-03-15T14:41:42.928Z,5.60
2018-03-15T14:44:10.917Z,5.80
2018-03-15T14:46:38.953Z,5.20
2018-03-15T14:49:06.912Z,4.90
2018-03-15T14:51:34.892Z,5.10
2018-03-15T14:54:02.865Z,5.40
2018-03-15T14:56:30.855Z,4.80
2018-03-15T14:58:58.828Z,5.33
2018-03-15T15:01:26.800Z,4.37
2018-03-15T15:03:54.803Z,4.57
2018-03-15T15:06:22.786Z,4.90
2018-03-15T15:08:50.777Z,4.43
2018-03-15T15:11:18.789Z,5.10
2018-03-15T15:13:46.791Z,6.13
2018-03-15T15:16:14.778Z,5.00
2018-03-15T15:18:42.770Z,5.63
2018-03-15T15:21:10.748Z,5.00
2018-03-15T15:23:38.744Z,4.67
2018-03-15T15:26:06.783Z,4.93
2018-03-15T15:28:34.739Z,5.50
2018-03-15T15:31:02.696Z,5.37
2018-03-15T15:33:30.698Z,4.77
2018-03-15T15:35:58.692Z,5.37
2018-03-15T15:38:26.668Z,4.90
2018-03-15T15:40:54.648Z,4.77
2018-03-15T15:43:22.656Z,4.87
2018-03-15T15:45:50.625Z,4.43
2018-03-15T15:48:18.613Z,4.57
2018-03-15T15:50:46.646Z,4.70
2018-03-15T15:53:14.636Z,4.63
2018-03-15T15:55:42.603Z,4.30
2018-03-15T15:58:10.584Z,4.57
2018-03-15T16:00:38.552Z,4.97
2018-03-15T16:03:06.512Z,5.17
2018-03-15T16:05:34.501Z,4.30
2018-03-15T16:08:02.622Z,4.60
2018-03-15T16:10:31.007Z,5.23
2018-03-15T16:12:59.033Z,4.23
2018-03-15T16:15:27.020Z,4.23
2018-03-15T16:17:55.021Z,5.50
2018-03-15T16:20:23.057Z,4.60
2018-03-15T16:22:51.040Z,5.23
2018-03-15T16:25:19.025Z,4.57
2018-03-15T16:27:47.021Z,4.00
2018-03-15T16:30:15.016Z,4.70
2018-03-15T16:32:42.992Z,4.60
2018-03-15T16:35:10.979Z,4.40
2018-03-15T16:37:38.948Z,4.80
2018-03-15T16:40:06.910Z,4.57
2018-03-15T16:42:34.916Z,4.13
2018-03-15T16:45:02.908Z,5.17
2018-03-15T16:47:30.915Z,4.50
2018-03-15T16:49:58.951Z,5.95
2018-03-15T16:52:26.923Z,5.70
2018-03-15T16:54:54.908Z,6.00
2018-03-15T16:57:22.927Z,5.47
2018-03-15T16:59:50.916Z,5.47
2018-03-15T17:02:18.959Z,5.80
2018-03-15T17:04:47.187Z,4.67
2018-03-15T17:07:15.182Z,5.17
2018-03-15T17:09:44.048Z,5.43
2018-03-15T17:12:12.063Z,6.30
2018-03-15T17:14:40.044Z,4.50
2018-03-15T17:17:11.380Z,5.17
2018-03-15T17:19:39.487Z,5.17
2018-03-15T17:22:07.457Z,5.70
2018-03-15T17:24:35.500Z,6.30
2018-03-15T17:27:03.536Z,5.63
2018-03-15T17:29:31.581Z,5.73
2018-03-15T17:31:59.564Z,5.40
2018-03-15T17:34:27.574Z,5.47
2018-03-15T17:36:55.533Z,6.00
2018-03-15T17:39:24.433Z,6.40
2018-03-15T17:41:52.461Z,5.68
2018-03-15T17:44:20.429Z,5.90
2018-03-15T17:46:48.429Z,6.33
2018-03-15T17:49:16.425Z,6.27
2018-03-15T17:51:44.417Z,5.75
2018-03-15T17:54:12.446Z,6.72
2018-03-15T17:56:40.450Z,5.97
2018-03-15T17:59:08.561Z,6.50
2018-03-15T18:01:36.584Z,6.37
2018-03-15T18:04:04.733Z,5.43
2018-03-15T18:06:32.760Z,5.97
2018-03-15T18:09:00.778Z,6.37
2018-03-15T18:11:28.913Z,5.53
2018-03-15T18:13:58.004Z,6.67
2018-03-15T18:16:26.034Z,6.00
2018-03-15T18:18:54.074Z,6.10
2018-03-15T18:21:22.052Z,6.50
2018-03-15T18:23:50.054Z,5.95
2018-03-15T18:26:18.089Z,6.43
2018-03-15T18:28:46.072Z,6.40
2018-03-15T18:31:14.097Z,5.83
2018-03-15T18:33:42.202Z,6.22
2018-03-15T18:36:10.249Z,5.65
2018-03-15T18:38:38.285Z,5.45
2018-03-15T18:41:06.316Z,6.53
2018-03-15T18:43:34.301Z,6.00
2018-03-15T18:46:02.294Z,6.60
2018-03-15T18:48:30.345Z,6.32
2018-03-15T18:50:58.360Z,6.53
2018-03-15T18:53:26.405Z,6.65
2018-03-15T18:55:54.484Z,6.07
2018-03-15T18:58:22.540Z,6.40
2018-03-15T19:00:50.553Z,6.62
2018-03-15T19:03:18.970Z,6.32
2018-03-15T19:05:47.118Z,6.43
2018-03-15T19:08:15.632Z,6.87
2018-03-15T19:10:43.824Z,6.20
2018-03-15T19:13:11.857Z,6.60
2018-03-15T19:15:39.921Z,6.37
2018-03-15T19:18:07.893Z,6.80
2018-03-15T19:20:35.929Z,6.05
2018-03-15T19:23:04.110Z,6.28
2018-03-15T19:25:32.213Z,6.62
2018-03-15T19:28:00.401Z,6.40
2018-03-15T19:30:28.524Z,6.75
2018-03-15T19:32:56.493Z,6.78
2018-03-15T19:35:24.506Z,7.18
2018-03-15T19:37:52.585Z,6.55
2018-03-15T19:40:20.573Z,7.10
2018-03-15T19:42:48.559Z,7.60
2018-03-15T19:45:16.544Z,6.82
2018-03-15T19:47:44.554Z,6.82
2018-03-15T19:50:12.583Z,7.05
2018-03-15T19:52:40.621Z,7.90
2018-03-15T19:55:08.730Z,7.10
2018-03-15T19:57:37.748Z,7.20
2018-03-15T20:00:05.905Z,7.20
2018-03-15T20:02:33.959Z,6.90
2018-03-15T20:05:02.053Z,6.32
2018-03-15T20:07:30.049Z,6.68
2018-03-15T20:09:58.150Z,6.07
2018-03-15T20:12:26.157Z,8.20
2018-03-15T20:14:54.303Z,7.57
2018-03-15T20:17:22.353Z,6.90
2018-03-15T20:19:50.432Z,6.82
2018-03-15T20:22:24.691Z,7.82
2018-03-15T20:24:53.766Z,7.68
2018-03-15T20:27:27.786Z,7.45
2018-03-15T20:29:55.920Z,7.72
2018-03-15T20:32:30.054Z,6.80
2018-03-15T20:34:58.087Z,7.35
2018-03-15T20:37:26.112Z,7.35
2018-03-15T20:40:00.121Z,6.55
2018-03-15T20:42:28.141Z,7.62
2018-03-15T20:44:56.158Z,8.48
2018-03-15T20:47:30.328Z,7.40
2018-03-15T20:49:58.345Z,7.20
2018-03-15T20:52:26.345Z,7.37
2018-03-15T20:54:54.349Z,6.90
2018-03-15T20:57:22.356Z,7.85
2018-03-15T20:59:50.369Z,7.70
2018-03-15T21:02:18.408Z,6.50
2018-03-15T21:04:46.417Z,7.72
2018-03-15T21:07:14.397Z,7.70
2018-03-15T21:09:42.388Z,7.95
2018-03-15T21:12:10.414Z,8.63
2018-03-15T21:14:38.401Z,7.85
2018-03-15T21:17:06.391Z,8.13
2018-03-15T21:19:34.413Z,7.75
2018-03-15T21:22:02.410Z,6.95
2018-03-15T21:24:30.438Z,8.00
2018-03-15T21:26:58.678Z,7.22
2018-03-15T21:29:26.640Z,7.62
2018-03-15T21:31:54.651Z,7.82
2018-03-15T21:34:22.859Z,8.98
2018-03-15T21:36:50.869Z,9.15
2018-03-15T21:39:18.877Z,9.00
2018-03-15T21:41:46.877Z,7.45
2018-03-15T21:44:14.971Z,8.38
2018-03-15T21:46:42.977Z,7.37
2018-03-15T21:49:11.047Z,8.75
2018-03-15T21:51:39.058Z,8.00
2018-03-15T21:54:07.058Z,8.20
2018-03-15T21:56:35.119Z,8.05
2018-03-15T21:59:03.084Z,8.32
2018-03-15T22:01:31.093Z,8.73
2018-03-15T22:03:59.109Z,8.70
2018-03-15T22:06:27.126Z,8.93
2018-03-15T22:08:55.161Z,9.02
2018-03-15T22:11:23.162Z,8.95
2018-03-15T22:13:51.216Z,9.48
2018-03-15T22:16:19.204Z,8.60
2018-03-15T22:18:47.221Z,8.80
2018-03-15T22:21:15.233Z,8.45
2018-03-15T22:23:43.223Z,8.68
2018-03-15T22:26:11.225Z,8.40
2018-03-15T22:28:39.266Z,9.57
2018-03-15T22:31:07.253Z,8.85
2018-03-15T22:33:35.265Z,9.32
2018-03-15T22:36:03.316Z,8.73
2018-03-15T22:38:31.306Z,9.80
2018-03-15T22:40:59.342Z,9.00
2018-03-15T22:43:27.336Z,8.93
2018-03-15T22:45:55.284Z,8.55
2018-03-15T22:48:23.257Z,9.20
2018-03-15T22:50:51.265Z,9.07
2018-03-15T22:53:19.257Z,9.82
2018-03-15T22:55:47.259Z,9.73
2018-03-15T22:58:15.261Z,9.10
2018-03-15T23:00:43.261Z,8.73
2018-03-15T23:03:11.233Z,8.73
2018-03-15T23:05:39.293Z,9.02
2018-03-15T23:08:07.327Z,8.98
2018-03-15T23:10:35.332Z,8.93
2018-03-15T23:13:03.373Z,8.82
2018-03-15T23:15:31.332Z,9.07
2018-03-15T23:17:59.330Z,8.13
2018-03-15T23:20:27.372Z,9.05
2018-03-15T23:22:55.362Z,10.95
2018-03-15T23:25:23.373Z,9.63
2018-03-15T23:27:52.485Z,12.20
2018-03-15T23:30:20.498Z,10.10
2018-03-15T23:32:48.517Z,8.52
2018-03-15T23:35:16.561Z,9.30
2018-03-15T23:37:44.561Z,8.85
2018-03-15T23:40:14.613Z,10.57
2018-03-15T23:42:42.625Z,9.35
2018-03-15T23:45:10.612Z,10.48
2018-03-15T23:47:38.601Z,8.90
2018-03-15T23:50:06.593Z,10.25
2018-03-15T23:52:34.619Z,9.38
2018-03-15T23:55:02.627Z,8.93
2018-03-15T23:57:30.652Z,9.35
2018-03-15T23:59:58.646Z,9.13
